Time;durP1;ratioP1;P1;durP2;ratioP2;P2;SDS_P1;SDS_P2;PMS_P1;PMS_P2;Temp;Humidity;BMP_temperature;BMP_pressure;BME280_temperature;BME280_humidity;BME280_pressure;Samples;Min_cycle;Max_cycle;Signal;HPM_P1;HPM_P2
2022/04/05 00:01:14;;;;;;;6.28;2.65;;;6.90;99.90;;;;;;5000867;28;90230;-32
2022/04/05 00:03:40;;;;;;;3.22;2.17;;;6.90;99.90;;;;;;5000052;28;89765;-31
2022/04/05 00:06:05;;;;;;;2.92;2.35;;;6.90;99.90;;;;;;5000536;28;90578;-36
2022/04/05 00:08:31;;;;;;;13.50;2.50;;;7.00;99.90;;;;;;5000675;28;89257;-33
2022/04/05 00:10:56;;;;;;;8.88;2.90;;;6.90;99.90;;;;;;4999697;28;91344;-36
2022/04/05 00:13:22;;;;;;;6.32;2.13;;;6.90;99.90;;;;;;4982052;28;89578;-33
2022/04/05 00:15:48;;;;;;;5.95;2.13;;;6.90;99.90;;;;;;5000088;28;90238;-36
2022/04/05 00:18:13;;;;;;;5.85;2.28;;;6.90;99.90;;;;;;5001244;28;89467;-35
2022/04/05 00:20:39;;;;;;;3.30;2.47;;;6.90;99.90;;;;;;5000318;28;90539;-32
2022/04/05 00:23:05;;;;;;;3.70;2.15;;;6.90;99.90;;;;;;5031466;22;89975;-33
2022/04/05 00:25:31;;;;;;;7.80;3.00;;;6.90;99.90;;;;;;4999824;28;90961;-33
2022/04/05 00:27:57;;;;;;;11.40;2.38;;;6.90;99.90;;;;;;5000543;28;89765;-33
2022/04/05 00:30:22;;;;;;;7.15;2.67;;;6.90;99.90;;;;;;5000840;28;89069;-31
2022/04/05 00:32:48;;;;;;;3.40;2.72;;;6.90;99.90;;;;;;4999342;28;90421;-33
2022/04/05 00:35:14;;;;;;;10.00;2.70;;;6.90;99.90;;;;;;5000675;28;90348;-32
2022/04/05 00:37:40;;;;;;;6.07;2.63;;;6.80;99.90;;;;;;4999491;28;87960;-31
2022/04/05 00:40:07;;;;;;;5.78;2.38;;;6.80;99.90;;;;;;5000189;28;90279;-34
2022/04/05 00:42:33;;;;;;;5.32;2.47;;;6.80;99.90;;;;;;5000186;28;91218;-34
2022/04/05 00:44:59;;;;;;;4.78;2.83;;;6.80;99.90;;;;;;4999614;28;88593;-30
2022/04/05 00:47:25;;;;;;;10.85;3.00;;;6.80;99.90;;;;;;4999741;28;89195;-35
2022/04/05 00:49:53;;;;;;;6.65;2.03;;;6.80;99.90;;;;;;4999957;28;90287;-33
2022/04/05 00:52:21;;;;;;;6.28;2.60;;;6.80;99.90;;;;;;4999697;28;90048;-32
2022/04/05 00:54:51;;;;;;;3.65;2.38;;;6.80;99.90;;;;;;4999308;28;90567;-31
2022/04/05 00:57:19;;;;;;;9.30;2.35;;;6.70;99.90;;;;;;4999627;28;88384;-34
2022/04/05 00:59:47;;;;;;;5.22;2.50;;;6.70;99.90;;;;;;4999019;28;90316;-34
2022/04/05 01:02:20;;;;;;;7.32;2.28;;;6.70;99.90;;;;;;4999615;28;90164;-35
2022/04/05 01:04:47;;;;;;;3.25;2.30;;;6.70;99.90;;;;;;4999291;28;89613;-31
2022/04/05 01:07:23;;;;;;;3.58;1.83;;;6.70;99.90;;;;;;5000077;28;88933;-32
2022/04/05 01:09:53;;;;;;;4.82;2.03;;;6.70;99.90;;;;;;4999862;28;90557;-34
2022/04/05 01:12:21;;;;;;;4.05;2.70;;;6.70;99.90;;;;;;4999384;28;91167;-31
2022/04/05 01:14:47;;;;;;;6.23;2.57;;;6.70;99.90;;;;;;4999558;28;89831;-32
2022/04/05 01:17:14;;;;;;;6.13;2.08;;;6.70;99.90;;;;;;4999851;28;90158;-31
2022/04/05 01:19:39;;;;;;;6.68;2.63;;;6.70;99.90;;;;;;5000294;28;90248;-32
2022/04/05 01:22:05;;;;;;;4.38;2.20;;;6.60;99.90;;;;;;4998370;28;90598;-35
2022/04/05 01:24:32;;;;;;;7.63;2.72;;;6.60;99.90;;;;;;4998685;28;90259;-37
2022/04/05 01:26:59;;;;;;;2.90;1.83;;;6.60;99.90;;;;;;4999612;28;89420;-33
2022/04/05 01:29:27;;;;;;;6.00;2.10;;;6.60;99.90;;;;;;4999986;28;90440;-31
2022/04/05 01:32:01;;;;;;;4.72;2.00;;;6.60;99.90;;;;;;4999049;28;89751;-32
2022/04/05 01:34:28;;;;;;;8.43;1.90;;;6.60;99.90;;;;;;4999655;28;89455;-35
2022/04/05 01:36:57;;;;;;;4.70;1.88;;;6.60;99.90;;;;;;4999024;28;89419;-32
2022/04/05 01:39:25;;;;;;;5.90;1.77;;;6.60;99.90;;;;;;4999327;28;90255;-31
2022/04/05 01:41:55;;;;;;;;;;;6.50;99.90;;;;;;4999372;28;89829;-32
2022/04/05 01:44:21;;;;;;;5.07;1.63;;;6.50;99.90;;;;;;5000556;28;89159;-34
2022/04/05 01:46:47;;;;;;;7.45;2.38;;;6.50;99.90;;;;;;4999162;28;89614;-36
2022/04/05 01:49:13;;;;;;;5.05;1.98;;;6.50;99.90;;;;;;4999446;28;89234;-34
2022/04/05 01:51:40;;;;;;;11.75;2.83;;;6.50;99.90;;;;;;4998803;28;89997;-32
2022/04/05 01:54:07;;;;;;;10.20;1.85;;;6.50;99.90;;;;;;4981492;28;91100;-33
2022/04/05 01:56:39;;;;;;;4.07;1.53;;;6.50;99.90;;;;;;4999788;28;89763;-34
2022/04/05 01:59:05;;;;;;;4.65;2.17;;;6.50;99.90;;;;;;4999441;28;90210;-33
2022/04/05 02:01:31;;;;;;;4.30;1.88;;;6.40;99.90;;;;;;4998753;28;90219;-33
2022/04/05 02:03:56;;;;;;;3.40;1.63;;;6.40;99.90;;;;;;4998899;28;89619;-31
2022/04/05 02:06:22;;;;;;;6.70;2.00;;;6.40;99.90;;;;;;4999390;28;87818;-33
2022/04/05 02:08:47;;;;;;;2.88;1.27;;;6.40;99.90;;;;;;4999115;28;89001;-33
2022/04/05 02:11:13;;;;;;;4.05;1.67;;;6.40;99.90;;;;;;4998682;28;90662;-34
2022/04/05 02:13:38;;;;;;;5.43;1.80;;;6.40;99.90;;;;;;4998441;28;90423;-34
2022/04/05 02:16:05;;;;;;;7.15;1.80;;;6.40;99.90;;;;;;4999178;28;88139;-34
2022/04/05 02:18:30;;;;;;;3.30;1.60;;;6.40;99.90;;;;;;4999134;28;91106;-31
2022/04/05 02:20:56;;;;;;;4.28;1.58;;;6.40;99.90;;;;;;4998908;28;89654;-32
2022/04/05 02:23:22;;;;;;;2.53;1.60;;;6.40;99.90;;;;;;4998153;28;89652;-32
2022/04/05 02:25:48;;;;;;;3.03;2.10;;;6.40;99.90;;;;;;4998155;28;88694;-36
2022/04/05 02:28:13;;;;;;;5.80;2.28;;;6.40;99.90;;;;;;4999321;28;90533;-34
2022/04/05 02:30:40;;;;;;;4.35;1.95;;;6.40;99.90;;;;;;4998394;28;91239;-32
2022/04/05 02:33:06;;;;;;;6.47;1.95;;;6.40;99.90;;;;;;4999245;28;90265;-32
2022/04/05 02:35:32;;;;;;;4.70;2.17;;;6.40;99.90;;;;;;5002117;28;89964;-32
2022/04/05 02:38:01;;;;;;;8.90;2.10;;;6.40;99.90;;;;;;5001172;28;90632;-33
2022/04/05 02:40:27;;;;;;;5.22;2.28;;;6.40;99.90;;;;;;5001786;28;89800;-34
2022/04/05 02:42:54;;;;;;;6.75;2.67;;;6.40;99.90;;;;;;5002245;28;88514;-31
2022/04/05 02:45:19;;;;;;;9.45;2.38;;;6.40;99.90;;;;;;5002724;28;88016;-33
2022/04/05 02:47:45;;;;;;;6.60;1.90;;;6.40;99.90;;;;;;5000945;28;90322;-33
2022/04/05 02:50:11;;;;;;;7.03;2.00;;;6.40;99.90;;;;;;5001639;28;90068;-35
2022/04/05 02:52:37;;;;;;;5.72;2.03;;;6.40;99.90;;;;;;5001108;28;89307;-33
2022/04/05 02:55:03;;;;;;;6.30;2.20;;;6.40;99.90;;;;;;5002301;28;88646;-34
2022/04/05 02:57:29;;;;;;;6.47;2.13;;;6.40;99.90;;;;;;5002502;28;90761;-31
2022/04/05 02:59:54;;;;;;;8.18;2.55;;;6.40;99.90;;;;;;5000772;28;90470;-31
2022/04/05 03:02:20;;;;;;;8.68;2.45;;;6.40;99.90;;;;;;5001855;28;90378;-33
2022/04/05 03:04:46;;;;;;;6.20;2.47;;;6.40;99.90;;;;;;5001078;28;87999;-34
2022/04/05 03:07:12;;;;;;;4.97;2.35;;;6.50;99.90;;;;;;5001869;28;90233;-34
2022/04/05 03:09:37;;;;;;;10.18;3.22;;;6.50;99.90;;;;;;5001502;28;89768;-35
2022/04/05 03:12:03;;;;;;;9.20;2.85;;;6.50;99.90;;;;;;5000986;28;90337;-36
2022/04/05 03:14:29;;;;;;;7.25;2.72;;;6.50;99.90;;;;;;5001910;28;89243;-35
2022/04/05 03:16:54;;;;;;;8.43;3.25;;;6.50;99.90;;;;;;5001323;28;90284;-31
2022/04/05 03:19:20;;;;;;;6.53;3.03;;;6.40;99.90;;;;;;5002215;28;89066;-35
2022/04/05 03:21:45;;;;;;;11.57;3.53;;;6.40;99.90;;;;;;5000684;28;89463;-32
2022/04/05 03:24:11;;;;;;;4.65;2.75;;;6.50;99.90;;;;;;5000818;28;90563;-35
2022/04/05 03:26:36;;;;;;;17.80;3.80;;;6.50;99.90;;;;;;5001035;28;89768;-36
2022/04/05 03:29:02;;;;;;;12.63;4.07;;;6.50;99.90;;;;;;5001419;28;90189;-35
2022/04/05 03:31:28;;;;;;;9.93;3.03;;;6.50;99.90;;;;;;5001345;28;89969;-33
2022/04/05 03:33:53;;;;;;;10.18;3.80;;;6.50;99.90;;;;;;5001197;28;89275;-34
2022/04/05 03:36:19;;;;;;;9.98;3.97;;;6.50;99.90;;;;;;5001286;28;90172;-32
2022/04/05 03:38:44;;;;;;;8.85;3.38;;;6.50;99.90;;;;;;5000594;28;89364;-33
2022/04/05 03:41:10;;;;;;;4.72;3.45;;;6.50;99.90;;;;;;5001493;28;89493;-33
2022/04/05 03:43:36;;;;;;;6.22;3.80;;;6.50;99.90;;;;;;5001368;28;89545;-33
2022/04/05 03:46:02;;;;;;;9.75;3.90;;;6.50;99.90;;;;;;4999819;28;90208;-33
2022/04/05 03:48:27;;;;;;;10.85;4.25;;;6.50;99.90;;;;;;5000823;28;90540;-31
2022/04/05 03:50:53;;;;;;;15.05;4.47;;;6.50;99.90;;;;;;5000548;28;90454;-32
2022/04/05 03:53:19;;;;;;;9.82;4.22;;;6.50;99.90;;;;;;5001176;28;89272;-34
2022/04/05 03:55:44;;;;;;;14.82;4.40;;;6.50;99.90;;;;;;5000549;28;90684;-34
2022/04/05 03:58:12;;;;;;;7.25;3.67;;;6.50;99.90;;;;;;5000361;28;90272;-33
2022/04/05 04:00:38;;;;;;;10.70;4.15;;;6.50;99.90;;;;;;5001081;28;90036;-32
2022/04/05 04:03:04;;;;;;;5.10;3.00;;;6.50;99.90;;;;;;5000826;28;88870;-33
2022/04/05 04:05:29;;;;;;;11.48;4.70;;;6.50;99.90;;;;;;5000855;28;90247;-34
2022/04/05 04:07:55;;;;;;;8.30;3.33;;;6.50;99.90;;;;;;5000663;28;90818;-33
2022/04/05 04:10:20;;;;;;;13.68;3.80;;;6.50;99.90;;;;;;5000878;28;89784;-34
2022/04/05 04:12:46;;;;;;;10.18;4.28;;;6.50;99.90;;;;;;5000051;28;89234;-34
2022/04/05 04:15:12;;;;;;;7.55;3.22;;;6.50;99.90;;;;;;5000461;28;90282;-33
2022/04/05 04:17:37;;;;;;;6.70;3.88;;;6.50;99.90;;;;;;5000814;28;89772;-32
2022/04/05 04:20:05;;;;;;;4.53;2.85;;;6.50;99.90;;;;;;5000834;28;90769;-32
2022/04/05 04:22:30;;;;;;;9.88;3.42;;;6.50;99.90;;;;;;5000179;28;88510;-32
2022/04/05 04:24:57;;;;;;;9.88;3.28;;;6.50;99.90;;;;;;5000454;28;90116;-32
2022/04/05 04:27:26;;;;;;;11.23;3.15;;;6.50;99.90;;;;;;5000461;28;89659;-32
2022/04/05 04:29:52;;;;;;;9.57;3.28;;;6.50;99.90;;;;;;5000017;28;89962;-36
2022/04/05 04:32:17;;;;;;;15.38;4.18;;;6.50;99.90;;;;;;5000841;28;88496;-33
2022/04/05 04:34:43;;;;;;;9.40;3.08;;;6.50;99.90;;;;;;4999942;28;91362;-32
2022/04/05 04:37:09;;;;;;;6.88;4.07;;;6.50;99.90;;;;;;4998902;28;90807;-33
2022/04/05 04:39:36;;;;;;;9.38;3.38;;;6.50;99.90;;;;;;5000365;28;90241;-35
2022/04/05 04:42:02;;;;;;;9.82;3.50;;;6.50;99.90;;;;;;5000243;28;89581;-33
2022/04/05 04:44:28;;;;;;;11.88;3.75;;;6.50;99.90;;;;;;5000012;28;90064;-34
2022/04/05 04:46:53;;;;;;;6.80;3.03;;;6.50;99.90;;;;;;4999672;28;89164;-32
2022/04/05 04:49:19;;;;;;;6.85;3.60;;;6.50;99.90;;;;;;4999365;28;89331;-32
2022/04/05 04:51:45;;;;;;;11.10;3.55;;;6.50;99.90;;;;;;5000376;28;89383;-35
2022/04/05 04:54:10;;;;;;;4.97;3.53;;;6.50;99.90;;;;;;5000086;28;90420;-33
2022/04/05 04:56:36;;;;;;;6.78;3.03;;;6.40;99.90;;;;;;4999058;28;90712;-33
2022/04/05 04:59:02;;;;;;;8.07;3.63;;;6.40;99.90;;;;;;4999714;28;89509;-32
2022/04/05 05:01:27;;;;;;;11.80;4.03;;;6.50;99.90;;;;;;4999481;28;89094;-34
2022/04/05 05:03:53;;;;;;;10.82;3.75;;;6.50;99.90;;;;;;4999068;28;92445;-33
2022/04/05 05:06:18;;;;;;;7.28;3.65;;;6.40;99.90;;;;;;4999246;28;89751;-31
2022/04/05 05:08:44;;;;;;;17.63;4.18;;;6.40;99.90;;;;;;5000233;28;90102;-32
2022/04/05 05:11:12;;;;;;;7.55;3.85;;;6.40;99.90;;;;;;4999665;28;89075;-33
2022/04/05 05:13:38;;;;;;;6.88;3.50;;;6.40;99.90;;;;;;4999256;28;90793;-36
2022/04/05 05:16:04;;;;;;;12.45;3.95;;;6.40;99.90;;;;;;4999456;28;89118;-32
2022/04/05 05:18:29;;;;;;;9.05;3.50;;;6.40;99.90;;;;;;4999702;28;91897;-31
2022/04/05 05:20:55;;;;;;;16.83;4.20;;;6.50;99.90;;;;;;4999988;28;87999;-32
2022/04/05 05:23:21;;;;;;;9.65;3.78;;;6.50;99.90;;;;;;4998949;28;90192;-35
2022/04/05 05:25:48;;;;;;;7.82;3.28;;;6.50;99.90;;;;;;4998387;28;89045;-32
2022/04/05 05:28:14;;;;;;;6.13;3.63;;;6.50;99.90;;;;;;4999635;28;89076;-33
2022/04/05 05:30:40;;;;;;;10.35;3.92;;;6.50;99.90;;;;;;4999492;28;89188;-32
2022/04/05 05:33:06;;;;;;;13.88;4.32;;;6.50;99.90;;;;;;4999221;28;90404;-32
2022/04/05 05:35:32;;;;;;;10.60;4.43;;;6.50;99.90;;;;;;4998920;28;89577;-34
2022/04/05 05:37:57;;;;;;;9.20;3.95;;;6.50;99.90;;;;;;4998497;28;89763;-33
2022/04/05 05:40:24;;;;;;;13.88;4.05;;;6.50;99.90;;;;;;4999652;28;88685;-36
2022/04/05 05:42:57;;;;;;;9.48;4.28;;;6.50;99.90;;;;;;4999142;28;90261;-32
2022/04/05 05:45:24;;;;;;;4.45;3.40;;;6.50;99.90;;;;;;4981874;28;89872;-35
2022/04/05 05:47:50;;;;;;;5.40;3.85;;;6.60;99.90;;;;;;4999203;28;88946;-35
2022/04/05 05:50:16;;;;;;;15.00;4.82;;;6.60;99.90;;;;;;4998520;28;89481;-35
2022/04/05 05:52:42;;;;;;;12.48;4.38;;;6.60;99.90;;;;;;4999700;28;90014;-35
2022/04/05 05:55:13;;;;;;;8.50;3.70;;;6.60;99.90;;;;;;4999075;28;89989;-32
2022/04/05 05:57:39;;;;;;;9.90;4.13;;;6.60;99.90;;;;;;4998985;28;89773;-33
2022/04/05 06:00:06;;;;;;;6.88;4.43;;;6.70;99.90;;;;;;4999206;28;89018;-33
2022/04/05 06:02:35;;;;;;;18.77;4.27;;;6.70;99.90;;;;;;4998671;28;91555;-36
2022/04/05 06:05:01;;;;;;;8.95;4.43;;;6.70;99.90;;;;;;4998771;28;90739;-33
2022/04/05 06:07:26;;;;;;;6.80;4.05;;;6.70;99.90;;;;;;4998669;28;90840;-32
2022/04/05 06:09:52;;;;;;;9.10;3.97;;;6.80;99.90;;;;;;5000752;28;89048;-34
2022/04/05 06:12:18;;;;;;;6.78;3.90;;;6.80;99.90;;;;;;5002448;28;90146;-36
2022/04/05 06:14:43;;;;;;;9.48;4.28;;;6.90;99.90;;;;;;5002085;28;90683;-32
2022/04/05 06:17:09;;;;;;;10.93;4.07;;;6.90;99.90;;;;;;5002219;28;89952;-33
2022/04/05 06:19:34;;;;;;;7.47;3.63;;;6.90;99.90;;;;;;5001928;28;88813;-37
2022/04/05 06:22:00;;;;;;;14.27;4.57;;;7.00;99.90;;;;;;5002284;28;90184;-35
2022/04/05 06:24:25;;;;;;;14.27;4.68;;;7.00;99.90;;;;;;5001643;28;89853;-35
2022/04/05 06:26:51;;;;;;;11.75;4.22;;;7.00;99.90;;;;;;5001691;28;89772;-35
2022/04/05 06:29:16;;;;;;;10.50;3.55;;;7.00;99.90;;;;;;5002954;28;89466;-32
2022/04/05 06:31:42;;;;;;;8.15;4.35;;;7.00;99.90;;;;;;5001672;28;93029;-31
2022/04/05 06:34:07;;;;;;;7.20;3.97;;;7.10;99.90;;;;;;5002122;28;90498;-30
2022/04/05 06:36:33;;;;;;;7.25;3.72;;;7.10;99.90;;;;;;5001684;28;89446;-34
2022/04/05 06:38:58;;;;;;;6.03;3.10;;;7.10;99.90;;;;;;5002015;28;90299;-32
2022/04/05 06:41:24;;;;;;;6.30;4.13;;;7.10;99.90;;;;;;5002156;28;89952;-31
2022/04/05 06:43:50;;;;;;;9.27;3.63;;;7.10;99.90;;;;;;5001143;28;89932;-32
2022/04/05 06:46:16;;;;;;;10.02;3.35;;;7.20;99.90;;;;;;5002136;28;89359;-30
2022/04/05 06:48:41;;;;;;;6.97;4.15;;;7.20;99.90;;;;;;5002050;28;88998;-34
2022/04/05 06:51:07;;;;;;;8.38;3.47;;;7.20;99.90;;;;;;5002270;28;90082;-33
2022/04/05 06:53:33;;;;;;;8.32;3.70;;;7.20;99.90;;;;;;5001255;28;89907;-32
2022/04/05 06:55:59;;;;;;;4.20;3.53;;;7.30;99.90;;;;;;5001918;28;90167;-35
2022/04/05 06:58:25;;;;;;;6.55;4.03;;;7.30;99.90;;;;;;5002229;28;90214;-33
2022/04/05 07:00:50;;;;;;;6.65;3.25;;;7.30;99.90;;;;;;5001664;28;89032;-31
2022/04/05 07:03:16;;;;;;;14.85;4.72;;;7.30;99.90;;;;;;5001164;28;90502;-32
2022/04/05 07:05:42;;;;;;;8.13;3.33;;;7.30;99.90;;;;;;5000945;28;90336;-32
2022/04/05 07:08:10;;;;;;;5.45;3.00;;;7.40;99.90;;;;;;5002211;28;87757;-37
2022/04/05 07:10:37;;;;;;;7.53;3.28;;;7.50;99.90;;;;;;5001636;28;90264;-33
2022/04/05 07:13:03;;;;;;;9.85;3.08;;;7.50;99.90;;;;;;5001817;28;89633;-35
2022/04/05 07:15:29;;;;;;;5.20;3.45;;;7.60;99.90;;;;;;5001495;28;89017;-33
2022/04/05 07:17:54;;;;;;;6.65;2.70;;;7.60;99.90;;;;;;5001871;28;88386;-34
2022/04/05 07:20:20;;;;;;;4.60;2.95;;;7.70;99.90;;;;;;5000463;28;90050;-34
2022/04/05 07:22:48;;;;;;;6.22;3.20;;;7.70;99.90;;;;;;5000068;28;89247;-35
2022/04/05 07:25:19;;;;;;;7.55;3.47;;;7.70;99.90;;;;;;5001340;28;89326;-33
2022/04/05 07:27:45;;;;;;;11.55;3.03;;;7.70;99.90;;;;;;5001535;28;89001;-33
2022/04/05 07:30:12;;;;;;;4.70;2.80;;;7.80;99.90;;;;;;5001419;28;89929;-32
2022/04/05 07:32:39;;;;;;;5.43;2.88;;;7.80;99.90;;;;;;5000045;28;90262;-35
2022/04/05 07:35:05;;;;;;;15.15;3.20;;;7.90;99.90;;;;;;4998266;28;89492;-34
2022/04/05 07:37:31;;;;;;;10.60;2.75;;;7.90;99.90;;;;;;4998985;28;88921;-32
2022/04/05 07:39:59;;;;;;;4.85;1.80;;;8.00;99.90;;;;;;4998729;28;90210;-33
2022/04/05 07:42:26;;;;;;;3.83;2.65;;;8.00;99.90;;;;;;4998735;28;90622;-34
2022/04/05 07:44:51;;;;;;;4.80;2.63;;;8.00;99.90;;;;;;4999585;28;89673;-34
2022/04/05 07:47:17;;;;;;;5.93;2.30;;;8.00;99.90;;;;;;4999214;28;89673;-35
2022/04/05 07:49:43;;;;;;;4.68;1.92;;;8.00;99.90;;;;;;4999889;28;89077;-35
2022/04/05 07:52:08;;;;;;;9.18;2.50;;;7.90;99.90;;;;;;4997984;28;90708;-34
2022/04/05 07:54:34;;;;;;;7.38;2.50;;;8.00;99.90;;;;;;4998764;28;91449;-37
2022/04/05 07:57:02;;;;;;;5.88;2.33;;;8.10;99.90;;;;;;4999069;28;89101;-33
2022/04/05 07:59:27;;;;;;;6.57;2.20;;;8.30;99.90;;;;;;4998162;28;89826;-34
2022/04/05 08:01:53;;;;;;;7.07;2.10;;;8.40;99.90;;;;;;4999471;28;89543;-32
2022/04/05 08:04:18;;;;;;;4.50;2.78;;;8.40;99.90;;;;;;4998842;28;89695;-33
2022/04/05 08:06:44;;;;;;;3.78;2.03;;;8.30;99.90;;;;;;4998486;28;90708;-32
2022/04/05 08:09:10;;;;;;;5.00;2.15;;;8.20;99.90;;;;;;4998802;28;90078;-33
2022/04/05 08:11:36;;;;;;;4.45;2.25;;;8.10;99.90;;;;;;4998273;28;89612;-32
2022/04/05 08:14:01;;;;;;;3.85;1.98;;;8.10;99.90;;;;;;4998920;28;90031;-34
2022/04/05 08:16:28;;;;;;;3.28;1.60;;;8.10;99.90;;;;;;4997931;28;90030;-33
2022/04/05 08:18:54;;;;;;;6.25;1.73;;;8.10;99.90;;;;;;4998461;28;90305;-33
2022/04/05 08:21:20;;;;;;;3.45;2.15;;;8.10;99.90;;;;;;4997941;28;90444;-33
2022/04/05 08:23:48;;;;;;;6.45;2.17;;;8.10;99.90;;;;;;4997768;28;88087;-32
2022/04/05 08:26:14;;;;;;;;;;;8.10;99.90;;;;;;4998966;28;89143;-32
2022/04/05 08:28:39;;;;;;;4.60;2.08;;;8.10;99.90;;;;;;5000099;28;89018;-32
2022/04/05 08:31:05;;;;;;;6.00;2.00;;;8.20;99.90;;;;;;4997932;28;90036;-32
2022/04/05 08:33:30;;;;;;;2.63;1.52;;;8.20;99.90;;;;;;4998379;28;89365;-36
2022/04/05 08:35:56;;;;;;;4.70;1.33;;;8.30;99.90;;;;;;4997910;28;88865;-36
2022/04/05 08:38:22;;;;;;;6.43;1.85;;;8.40;99.90;;;;;;4997990;28;90255;-35
2022/04/05 08:40:47;;;;;;;3.72;1.30;;;8.50;99.90;;;;;;4996730;28;91582;-32
2022/04/05 08:43:13;;;;;;;1.73;1.23;;;8.60;99.90;;;;;;4998014;28;90560;-33
2022/04/05 08:45:45;;;;;;;5.07;2.03;;;8.80;99.90;;;;;;4998469;28;89294;-34
2022/04/05 08:48:12;;;;;;;2.28;1.90;;;8.90;99.90;;;;;;4998103;28;88852;-35
2022/04/05 08:50:38;;;;;;;4.97;1.60;;;9.10;99.90;;;;;;4997910;28;89816;-34
2022/04/05 08:53:04;;;;;;;4.00;1.55;;;9.20;99.90;;;;;;4997186;28;89595;-34
2022/04/05 08:55:30;;;;;;;2.25;1.45;;;9.30;99.90;;;;;;4997865;28;89964;-34
2022/04/05 08:57:56;;;;;;;2.40;1.23;;;9.20;99.90;;;;;;4998001;28;88729;-35
2022/04/05 09:00:23;;;;;;;8.73;1.83;;;9.10;99.90;;;;;;4997655;28;91230;-33
2022/04/05 09:02:53;;;;;;;1.88;1.17;;;8.80;99.90;;;;;;4997562;28;89392;-34
2022/04/05 09:05:33;;;;;;;4.10;1.45;;;8.90;99.90;;;;;;4997704;28;88947;-34
2022/04/05 09:08:20;;;;;;;3.58;1.13;;;9.00;99.90;;;;;;4997804;28;91624;-36
2022/04/05 09:10:48;;;;;;;2.45;1.45;;;8.90;99.90;;;;;;4997832;28;88990;-35
2022/04/05 09:13:17;;;;;;;2.70;1.60;;;9.10;99.90;;;;;;4998008;28;89360;-33
2022/04/05 09:15:46;;;;;;;1.35;1.25;;;9.00;99.90;;;;;;4997467;28;89098;-32
2022/04/05 09:18:12;;;;;;;2.53;1.75;;;8.80;99.90;;;;;;4997698;28;90107;-32
2022/04/05 09:20:45;;;;;;;5.15;2.58;;;8.90;99.90;;;;;;5012427;28;89729;-34
2022/04/05 09:23:27;;;;;;;3.22;2.03;;;8.80;99.90;;;;;;4997432;28;89937;-32
2022/04/05 09:25:59;;;;;;;4.10;1.73;;;8.80;99.90;;;;;;4997672;28;88978;-36
2022/04/05 09:28:29;;;;;;;1.67;1.50;;;8.70;99.90;;;;;;4996928;28;90557;-34
2022/04/05 09:31:03;;;;;;;4.20;1.80;;;8.90;99.90;;;;;;4996471;28;90594;-31
2022/04/05 09:33:31;;;;;;;2.38;1.65;;;8.80;99.90;;;;;;4998200;28;90334;-31
2022/04/05 09:36:16;;;;;;;6.32;1.58;;;8.90;99.90;;;;;;4995914;28;90024;-32
2022/04/05 09:38:44;;;;;;;7.22;1.42;;;9.20;99.90;;;;;;4996390;28;89197;-33
2022/04/05 09:41:21;;;;;;;2.08;1.88;;;9.20;99.90;;;;;;4996930;28;90017;-35
2022/04/05 09:44:00;;;;;;;3.55;1.50;;;9.20;99.90;;;;;;4996422;28;89475;-33
2022/04/05 09:46:28;;;;;;;1.38;1.27;;;9.20;99.90;;;;;;4997935;28;89536;-34
2022/04/05 09:49:07;;;;;;;1.30;1.17;;;9.20;99.90;;;;;;4997134;28;92067;-32
2022/04/05 09:51:38;;;;;;;5.65;2.33;;;9.40;99.90;;;;;;4997061;28;91818;-34
2022/04/05 09:54:04;;;;;;;2.95;1.50;;;9.60;99.90;;;;;;4997283;28;89841;-35
2022/04/05 09:56:35;;;;;;;1.35;1.25;;;9.70;99.90;;;;;;4996358;28;90056;-34
2022/04/05 09:59:12;;;;;;;2.88;1.55;;;9.60;99.90;;;;;;4997138;28;90619;-32
2022/04/05 10:01:38;;;;;;;2.22;2.00;;;9.60;99.90;;;;;;4996277;28;90621;-35
2022/04/05 10:04:08;;;;;;;1.98;1.75;;;9.50;99.90;;;;;;4995976;28;89448;-33
2022/04/05 10:06:38;;;;;;;1.75;1.65;;;9.40;99.90;;;;;;4997593;28;89558;-35
2022/04/05 10:09:04;;;;;;;3.65;1.90;;;9.40;99.90;;;;;;4996959;28;90617;-33
2022/04/05 10:11:34;;;;;;;1.63;1.50;;;9.50;99.90;;;;;;4997667;28;89792;-31
2022/04/05 10:14:00;;;;;;;1.80;1.70;;;9.50;99.90;;;;;;4997585;28;90107;-31
2022/04/05 10:16:31;;;;;;;2.17;2.05;;;9.40;99.90;;;;;;4996629;28;89593;-33
2022/04/05 10:18:59;;;;;;;2.33;2.13;;;9.40;99.90;;;;;;4996133;28;90250;-32
2022/04/05 10:21:28;;;;;;;1.92;1.75;;;9.40;99.90;;;;;;4995859;28;90645;-32
2022/04/05 10:23:55;;;;;;;;;;;9.40;99.90;;;;;;4996214;28;89557;-34
2022/04/05 10:26:24;;;;;;;2.95;1.90;;;9.50;99.90;;;;;;4998800;28;88841;-32
2022/04/05 10:28:52;;;;;;;1.70;1.60;;;9.60;99.90;;;;;;4996425;28;90040;-36
2022/04/05 10:31:41;;;;;;;1.80;1.65;;;9.70;99.90;;;;;;4997008;28;89950;-34
2022/04/05 10:34:18;;;;;;;2.00;1.75;;;9.70;99.90;;;;;;4997258;28;89622;-34
2022/04/05 10:37:09;;;;;;;3.43;1.93;;;9.50;99.90;;;;;;4996751;28;88876;-33
2022/04/05 10:39:35;;;;;;;2.65;2.05;;;9.60;99.90;;;;;;4996404;28;90985;-37
2022/04/05 10:42:12;;;;;;;2.28;1.75;;;9.50;99.90;;;;;;4996618;28;91615;-32
2022/04/05 10:44:49;;;;;;;1.63;1.52;;;9.40;99.90;;;;;;4995956;28;89499;-37
2022/04/05 10:47:15;;;;;;;2.33;1.60;;;9.40;99.90;;;;;;4996511;28;89346;-34
2022/04/05 10:49:47;;;;;;;1.83;1.73;;;9.60;99.90;;;;;;4996175;28;90340;-31
2022/04/05 10:52:27;;;;;;;1.90;1.80;;;9.70;99.90;;;;;;4996735;28;89867;-32
2022/04/05 10:55:08;;;;;;;2.58;2.35;;;9.80;99.90;;;;;;4996545;28;89665;-37
2022/04/05 10:57:40;;;;;;;1.98;1.75;;;9.80;99.90;;;;;;4999833;28;88613;-32
2022/04/05 11:00:19;;;;;;;2.00;1.88;;;9.90;99.90;;;;;;5000051;28;89990;-33
2022/04/05 11:02:46;;;;;;;2.78;2.50;;;10.00;99.90;;;;;;5014764;28;90022;-33
2022/04/05 11:05:15;;;;;;;3.25;2.92;;;9.80;99.90;;;;;;4999063;28;88470;-32
2022/04/05 11:07:59;;;;;;;3.50;2.78;;;10.00;99.90;;;;;;4999521;28;88966;-36
2022/04/05 11:10:37;;;;;;;3.85;3.42;;;10.10;99.90;;;;;;5000442;28;90192;-32
2022/04/05 11:13:12;;;;;;;3.03;2.53;;;10.20;99.90;;;;;;4998756;28;90584;-34
2022/04/05 11:15:54;;;;;;;5.45;3.50;;;10.20;99.90;;;;;;4998771;28;90686;-34
2022/04/05 11:18:24;;;;;;;3.50;2.97;;;10.20;99.90;;;;;;5000053;28;89392;-35
2022/04/05 11:20:52;;;;;;;3.67;3.20;;;10.20;99.90;;;;;;4999027;28;89151;-33
2022/04/05 11:23:19;;;;;;;4.35;3.95;;;10.40;99.90;;;;;;4998255;28;89649;-36
2022/04/05 11:25:46;;;;;;;4.28;3.97;;;10.50;99.90;;;;;;4999048;28;89055;-35
2022/04/05 11:28:17;;;;;;;4.15;3.75;;;10.50;99.90;;;;;;4999546;28;88034;-34
2022/04/05 11:31:02;;;;;;;4.47;3.90;;;10.60;99.90;;;;;;4999193;28;90254;-37
2022/04/05 11:33:34;;;;;;;4.22;3.83;;;10.70;99.90;;;;;;4999744;28;89412;-32
2022/04/05 11:36:13;;;;;;;5.88;4.10;;;10.70;99.90;;;;;;5000018;28;89757;-33
2022/04/05 11:38:51;;;;;;;4.85;4.20;;;10.70;99.90;;;;;;4998838;28;89949;-33
2022/04/05 11:41:24;;;;;;;6.55;4.03;;;11.00;99.90;;;;;;4999433;28;90189;-33
2022/04/05 11:43:54;;;;;;;7.18;4.53;;;11.10;99.90;;;;;;4998752;28;88641;-35
2022/04/05 11:46:28;;;;;;;4.93;3.53;;;11.40;99.90;;;;;;4999271;28;89625;-37
2022/04/05 11:48:59;;;;;;;5.03;3.92;;;11.40;99.90;;;;;;4999140;28;88513;-33
2022/04/05 11:51:36;;;;;;;7.05;4.38;;;11.70;99.90;;;;;;5001865;28;90548;-35
2022/04/05 11:54:22;;;;;;;4.40;4.00;;;12.10;99.90;;;;;;5000959;28;89769;-33
2022/04/05 11:56:48;;;;;;;4.00;3.60;;;12.70;99.90;;;;;;5000266;28;89741;-33
2022/04/05 11:59:16;;;;;;;4.15;3.50;;;12.50;99.90;;;;;;5001085;28;87910;-34
2022/04/05 12:01:43;;;;;;;4.40;3.45;;;12.30;99.90;;;;;;5000784;28;90220;-32
2022/04/05 12:04:21;;;;;;;4.18;2.92;;;12.10;99.90;;;;;;4999614;28;90495;-35
2022/04/05 12:06:49;;;;;;;2.90;2.65;;;11.80;99.90;;;;;;4999097;28;90201;-34
2022/04/05 12:09:17;;;;;;;3.30;2.97;;;11.80;99.90;;;;;;5000419;28;88723;-33
2022/04/05 12:11:45;;;;;;;;;;;11.50;99.90;;;;;;5001137;28;89237;-33
2022/04/05 12:14:12;;;;;;;3.28;2.97;;;11.30;99.90;;;;;;5001659;28;89481;-36
2022/04/05 12:16:46;;;;;;;3.40;3.10;;;11.20;99.90;;;;;;5000485;28;90435;-33
2022/04/05 12:19:11;;;;;;;4.22;3.22;;;11.30;99.90;;;;;;5000147;28;88455;-34
2022/04/05 12:21:37;;;;;;;3.08;2.78;;;11.30;99.90;;;;;;5000946;28;90267;-33
2022/04/05 12:24:03;;;;;;;3.88;3.08;;;11.30;99.90;;;;;;5032893;22;90659;-32
2022/04/05 12:26:32;;;;;;;3.53;3.22;;;11.30;99.90;;;;;;5000978;28;89389;-32
2022/04/05 12:28:59;;;;;;;3.03;2.83;;;11.60;99.90;;;;;;4999756;28;90346;-33
2022/04/05 12:31:28;;;;;;;4.25;3.17;;;11.70;99.90;;;;;;5000418;28;90263;-33
2022/04/05 12:34:00;;;;;;;4.47;3.53;;;11.60;99.90;;;;;;4999446;28;90422;-34
2022/04/05 12:36:59;;;;;;;4.40;3.28;;;11.50;99.90;;;;;;5000398;28;91514;-32
2022/04/05 12:39:41;;;;;;;3.58;3.28;;;11.40;99.90;;;;;;5000795;28;87906;-34
2022/04/05 12:42:08;;;;;;;4.30;3.90;;;11.40;99.90;;;;;;4999463;28;89954;-36
2022/04/05 12:44:40;;;;;;;3.40;2.88;;;11.40;99.90;;;;;;5000159;28;89290;-36
2022/04/05 12:47:14;;;;;;;5.10;3.67;;;11.30;99.90;;;;;;5000892;28;89604;-32
2022/04/05 12:49:45;;;;;;;4.20;3.80;;;11.30;99.90;;;;;;5000017;28;89088;-35
2022/04/05 12:52:16;;;;;;;4.38;3.45;;;11.20;99.90;;;;;;5000316;28;90434;-34
2022/04/05 12:55:02;;;;;;;5.70;3.83;;;11.20;99.90;;;;;;4999120;28;90969;-36
2022/04/05 12:57:32;;;;;;;5.85;4.45;;;11.30;99.90;;;;;;5000328;28;90251;-32
2022/04/05 13:00:14;;;;;;;5.72;4.35;;;11.30;99.90;;;;;;5000176;28;89249;-33